Airfield :
LOGIN :

Register | Disclaimer

   EN    FR    IT 

 










Legend :    VFR   Marginal VFR   IFR   Intensive IFR   Very Intensive IFR
Visi :
Ceiling :
>= 8 km
>= 3000ft
5 to 8 km
1000 to 3000 ft
1500m to 5 km
500 to 1000 ft
800 to 1500m
200 to 500 ft
< 800m
< 200 ft
Symbols :   Thunderstorms  Fog  Heavy snow  Heavy precipitations  Wind > 20 kt
SIGMETs :     Misc.  Thunderstorms  Icing  Turbulence  Mountain Waves  Volcanic Ashes







- Airport Elevation : 408 ft
- IATA code : FKB


EDSB - Karlsruhe Baden Baden

CURRENT METAR :
  • 161250Z 28003KT 220V340 CAVOK 11/02 Q1028

EXPIRED METARs :
  • 161220Z 26004KT 230V330 CAVOK 11/02 Q1028
  • 161150Z 21004KT 160V250 CAVOK 10/02 Q1029
  • 161120Z VRB02KT CAVOK 08/02 Q1029
  • 161050Z 23004KT 160V290 CAVOK 07/01 Q1029
  • 161020Z 26003KT 220V320 CAVOK 06/01 Q1029

TAF TAF EDSB
Valid from the 16 at 12:00 until the 17 at 12:00 UTC


161100Z 1612/1712 23004KT CAVOK
TEMPO 1702/1708 4000 BR
PROB30
TEMPO 1705/1708 1500 BCFG
No reported NOTAMs for that airfield.



MET'MAP, your aeronautical weather chart ! - Copyright ORBIFLY December 2007 - Disclaimer

ORBIFLY MET'MAP TEAM :

Programming & Development : Alexandra Zaïnal
Concept & Development : Baudouin d'Aumeries
Co-Development & Prog : Marc-Olivier Méhu
Technical & hardware support : Manuel Goepfert

Contact : metmap@orbifly.com




SOURCES & CREDITS :

   NOAA